North Bend, Ohio
Current Conditions -  °F | °C
As of 5:52 PM on Wednesday 26 Nov 2014 (Local Time) from KCVG Reporting Station
Overcast Overcast  
Wind Chill: 32°   Ceiling: 15000
Heat Index: 36°   Visibility: 10mi
Dew Point: 25°   Wind: 5mph
Humidity: 64%   Direction: 60°ENE
Pressure: 30.02"   Gusts: NA
Location:  39.15°N, 84.75°W
Report Text: KCVG 262252Z 06004KT 10SM BKN150 OVC200 02/M04 A3002 RMK AO2 SLP171 BINOVC T00221039
Loading
Personal Weather Stations






























Interactive Weather Map New forecast layout! Learn more

10-Day Weather Forecast

Advertisements
Track Severe Weather on mobile